createdAt,value
2019-02-25T00:01:14.963Z,46.13
2019-02-25T00:03:45.324Z,46.05
2019-02-25T00:06:15.874Z,44.81
2019-02-25T00:08:46.808Z,45.05
2019-02-25T00:11:17.095Z,46.00
2019-02-25T00:13:47.278Z,47.19
2019-02-25T00:16:28.490Z,47.76
2019-02-25T00:18:58.687Z,45.80
2019-02-25T00:21:45.019Z,44.62
2019-02-25T00:24:15.210Z,43.95
2019-02-25T00:34:22.299Z,46.93
2019-02-25T00:36:52.471Z,46.96
2019-02-25T00:39:22.660Z,46.50
2019-02-25T00:41:52.899Z,47.38
2019-02-25T00:44:23.094Z,47.08
2019-02-25T00:47:03.357Z,46.83
2019-02-25T00:49:34.531Z,47.67
2019-02-25T00:52:04.780Z,48.51
2019-02-25T00:54:34.961Z,47.80
2019-02-25T00:57:06.175Z,48.33
2019-02-25T00:59:45.166Z,48.50
2019-02-25T01:02:15.354Z,48.06
2019-02-25T01:04:53.041Z,48.86
2019-02-25T01:07:32.107Z,47.72
2019-02-25T01:10:02.299Z,49.00
2019-02-25T01:12:33.553Z,48.87
2019-02-25T01:15:04.400Z,48.75
2019-02-25T01:17:34.645Z,48.35
2019-02-25T01:20:07.776Z,47.99
2019-02-25T01:22:44.161Z,49.60
2019-02-25T01:25:30.749Z,50.08
2019-02-25T01:28:13.802Z,49.59
2019-02-25T01:30:44.007Z,50.07
2019-02-25T01:33:14.183Z,49.23
2019-02-25T01:35:44.386Z,48.77
2019-02-25T01:38:15.717Z,49.74
2019-02-25T01:40:46.035Z,49.32
2019-02-25T01:43:16.224Z,48.05
2019-02-25T01:45:46.421Z,49.65
2019-02-25T01:48:16.610Z,48.63
2019-02-25T01:50:46.818Z,49.57
2019-02-25T01:53:17.012Z,49.33
2019-02-25T01:55:49.154Z,48.97
2019-02-25T01:58:19.343Z,48.93
2019-02-25T02:00:49.530Z,49.04
2019-02-25T02:03:23.878Z,49.78
2019-02-25T02:06:07.979Z,49.82
2019-02-25T02:08:51.528Z,50.14
2019-02-25T02:11:21.713Z,50.28
2019-02-25T02:13:51.932Z,50.20
2019-02-25T02:16:22.096Z,50.13
2019-02-25T02:18:59.356Z,50.69
2019-02-25T02:21:29.533Z,50.41
2019-02-25T02:23:59.717Z,51.22
2019-02-25T02:26:29.900Z,50.85
2019-02-25T02:29:02.087Z,51.84
2019-02-25T02:31:32.278Z,52.08
2019-02-25T02:34:02.458Z,51.27
2019-02-25T02:36:32.648Z,50.96
2019-02-25T02:39:03.110Z,52.31
2019-02-25T02:41:40.865Z,52.37
2019-02-25T02:44:11.059Z,52.31
2019-02-25T02:47:19.180Z,52.47
2019-02-25T02:49:49.367Z,52.76
2019-02-25T02:52:22.598Z,51.80
2019-02-25T02:54:52.810Z,52.58
2019-02-25T02:57:22.992Z,52.05
2019-02-25T02:59:53.190Z,52.02
2019-02-25T03:02:29.921Z,52.17
2019-02-25T03:05:00.285Z,51.90
2019-02-25T03:07:30.444Z,52.96
2019-02-25T03:10:00.632Z,52.58
2019-02-25T03:12:30.830Z,52.37
2019-02-25T03:15:01.037Z,52.91
2019-02-25T03:17:31.284Z,53.40
2019-02-25T03:20:02.630Z,53.20
2019-02-25T03:22:32.876Z,53.11
2019-02-25T03:25:19.456Z,52.54
2019-02-25T03:27:49.616Z,52.30
2019-02-25T03:30:21.723Z,52.04
2019-02-25T03:32:51.924Z,52.72
2019-02-25T03:35:22.131Z,52.96
2019-02-25T03:37:52.321Z,52.24
2019-02-25T03:40:23.565Z,52.65
2019-02-25T03:42:53.770Z,51.72
2019-02-25T03:45:23.959Z,51.58
2019-02-25T03:47:59.601Z,50.30
2019-02-25T03:50:36.838Z,51.20
2019-02-25T03:53:08.575Z,50.76
2019-02-25T03:55:38.836Z,51.03
2019-02-25T03:58:28.192Z,52.40
2019-02-25T04:00:58.378Z,52.54
2019-02-25T04:03:28.564Z,52.10
2019-02-25T04:06:05.969Z,52.90
2019-02-25T04:08:36.152Z,51.72
2019-02-25T04:11:06.348Z,52.04
2019-02-25T04:13:39.206Z,52.61
2019-02-25T04:16:09.459Z,52.43
2019-02-25T04:18:39.657Z,52.72
2019-02-25T04:21:09.847Z,53.56
2019-02-25T04:23:49.007Z,53.08
2019-02-25T04:26:19.202Z,53.08
2019-02-25T04:28:49.392Z,53.19
2019-02-25T04:31:38.050Z,52.98
2019-02-25T04:34:14.695Z,52.84
2019-02-25T04:36:44.870Z,52.25
2019-02-25T04:39:25.557Z,52.32
2019-02-25T04:41:55.725Z,52.27
2019-02-25T04:44:29.738Z,52.92
2019-02-25T04:46:59.936Z,52.97
2019-02-25T04:49:30.122Z,52.58
2019-02-25T04:52:01.228Z,52.28
2019-02-25T04:54:31.421Z,51.67
2019-02-25T04:57:01.628Z,52.24
2019-02-25T04:59:31.822Z,51.30
2019-02-25T05:02:02.395Z,51.93
2019-02-25T05:04:32.667Z,52.06
2019-02-25T05:07:02.880Z,51.45
2019-02-25T05:09:33.059Z,52.57
2019-02-25T05:12:03.247Z,51.57
2019-02-25T05:14:40.026Z,52.13
2019-02-25T05:17:45.416Z,52.23
2019-02-25T05:20:15.600Z,52.77
2019-02-25T05:22:45.804Z,52.52
2019-02-25T05:25:19.214Z,51.67
2019-02-25T05:27:49.391Z,51.81
2019-02-25T05:30:31.949Z,52.13
2019-02-25T05:33:02.151Z,51.37
2019-02-25T05:36:06.830Z,51.74
2019-02-25T05:38:37.033Z,51.61
2019-02-25T05:41:12.299Z,52.04
2019-02-25T05:43:42.505Z,51.85
2019-02-25T05:46:12.710Z,51.57
2019-02-25T05:48:56.200Z,51.54
2019-02-25T05:51:26.392Z,51.48
2019-02-25T05:53:56.582Z,51.20
2019-02-25T05:56:26.784Z,51.02
2019-02-25T05:59:04.196Z,51.50
2019-02-25T06:01:36.298Z,50.74
2019-02-25T06:04:06.483Z,50.49
2019-02-25T06:06:44.521Z,50.34
2019-02-25T06:09:14.726Z,50.49
2019-02-25T06:11:57.356Z,50.60
2019-02-25T06:14:33.020Z,51.64
2019-02-25T06:17:03.197Z,51.45
2019-02-25T06:19:33.404Z,51.11
2019-02-25T06:22:03.593Z,52.08
2019-02-25T06:24:33.788Z,50.20
2019-02-25T06:27:06.661Z,50.73
2019-02-25T06:29:36.854Z,50.45
2019-02-25T06:32:17.853Z,49.59
2019-02-25T06:34:48.072Z,50.22
2019-02-25T06:37:18.253Z,50.54
2019-02-25T06:39:54.326Z,50.25
2019-02-25T06:42:39.662Z,50.63
2019-02-25T06:45:15.692Z,50.88
2019-02-25T06:47:45.887Z,50.49
2019-02-25T06:50:16.159Z,50.27
2019-02-25T06:53:02.642Z,50.39
2019-02-25T06:55:38.339Z,50.57
2019-02-25T06:58:50.968Z,50.17
2019-02-25T07:01:22.091Z,50.34
2019-02-25T07:04:05.027Z,50.09
2019-02-25T07:06:36.832Z,49.92
2019-02-25T07:09:11.155Z,50.01
2019-02-25T07:11:42.998Z,49.95
2019-02-25T07:14:26.052Z,49.61
2019-02-25T07:17:02.146Z,48.71
2019-02-25T07:19:46.943Z,48.05
2019-02-25T07:22:18.790Z,48.42
2019-02-25T07:24:56.310Z,47.13
2019-02-25T07:27:43.215Z,46.83
2019-02-25T07:30:15.049Z,46.98
2019-02-25T07:32:49.738Z,46.20
2019-02-25T07:35:21.552Z,45.61
2019-02-25T07:38:03.519Z,45.83
2019-02-25T07:41:15.438Z,46.35
2019-02-25T07:44:06.023Z,44.63
2019-02-25T07:46:43.373Z,43.80
2019-02-25T07:49:27.366Z,42.32
2019-02-25T07:52:10.541Z,42.52
2019-02-25T07:54:58.871Z,42.16
2019-02-25T07:57:46.657Z,41.33
2019-02-25T08:00:40.953Z,41.08
2019-02-25T08:03:18.782Z,39.70
2019-02-25T08:05:50.602Z,39.29
2019-02-25T08:08:27.999Z,38.67
2019-02-25T08:11:02.755Z,39.46
2019-02-25T08:13:47.534Z,37.77
2019-02-25T08:16:25.393Z,37.30
2019-02-25T08:19:05.992Z,38.86
2019-02-25T08:21:41.922Z,37.23
2019-02-25T08:24:13.768Z,37.15
2019-02-25T08:27:09.637Z,37.52
2019-02-25T08:29:47.456Z,38.38
2019-02-25T08:32:19.349Z,36.69
2019-02-25T08:35:08.212Z,36.69
2019-02-25T08:37:59.129Z,35.82
2019-02-25T08:40:44.743Z,35.20
2019-02-25T08:43:18.089Z,35.96
2019-02-25T08:45:55.721Z,33.92
2019-02-25T08:48:29.990Z,33.85
2019-02-25T08:51:00.176Z,33.13
2019-02-25T08:53:30.373Z,32.14
2019-02-25T08:56:00.575Z,32.43
2019-02-25T08:58:30.749Z,32.42
2019-02-25T09:01:00.946Z,32.77
2019-02-25T09:03:31.139Z,33.29
2019-02-25T09:06:01.332Z,32.53
2019-02-25T09:08:31.517Z,32.40
2019-02-25T09:11:01.731Z,32.65
2019-02-25T09:13:32.973Z,31.76
2019-02-25T09:16:04.234Z,32.19
2019-02-25T09:18:34.427Z,32.30
2019-02-25T09:21:04.713Z,32.30
2019-02-25T09:23:35.866Z,31.08
2019-02-25T09:26:06.093Z,30.82
2019-02-25T09:28:36.277Z,31.04
2019-02-25T09:31:06.502Z,31.79
2019-02-25T09:33:36.783Z,30.92
2019-02-25T09:36:07.027Z,31.29
2019-02-25T09:38:37.247Z,30.68
2019-02-25T09:41:19.605Z,30.44
2019-02-25T09:43:49.798Z,30.37
2019-02-25T09:46:19.988Z,30.27
2019-02-25T09:48:50.172Z,30.64
2019-02-25T09:51:20.380Z,29.35
2019-02-25T09:53:50.550Z,29.58
2019-02-25T09:56:20.757Z,28.67
2019-02-25T09:58:52.003Z,29.89
2019-02-25T10:02:00.170Z,28.91
2019-02-25T10:04:30.367Z,29.75
2019-02-25T10:07:02.446Z,29.27
2019-02-25T10:09:38.122Z,28.33
2019-02-25T10:12:08.308Z,28.41
2019-02-25T10:14:38.509Z,28.88
2019-02-25T10:17:08.734Z,27.79
2019-02-25T10:19:39.114Z,27.95
2019-02-25T10:22:10.344Z,26.77
2019-02-25T10:24:40.515Z,28.15
2019-02-25T10:27:10.719Z,28.62
2019-02-25T10:29:40.914Z,28.64
2019-02-25T10:32:12.079Z,29.33
2019-02-25T10:34:42.323Z,27.67
2019-02-25T10:37:49.677Z,28.15
2019-02-25T10:40:24.039Z,26.01
2019-02-25T10:42:51.737Z,26.34
2019-02-25T10:45:25.993Z,26.47
2019-02-25T10:47:58.659Z,26.75
2019-02-25T10:50:28.840Z,26.23
2019-02-25T10:53:03.729Z,25.27
2019-02-25T10:55:41.387Z,26.29
2019-02-25T10:58:12.016Z,26.49
2019-02-25T11:00:43.825Z,25.90
2019-02-25T11:03:24.055Z,26.52
2019-02-25T11:06:00.808Z,25.62
2019-02-25T11:08:32.566Z,25.44
2019-02-25T11:11:05.541Z,26.00
2019-02-25T11:13:36.733Z,25.92
2019-02-25T11:16:16.452Z,25.33
2019-02-25T11:18:47.210Z,24.46
2019-02-25T11:21:17.393Z,25.17
2019-02-25T11:23:49.229Z,25.56
2019-02-25T11:26:20.472Z,25.15
2019-02-25T11:28:50.683Z,25.32
2019-02-25T11:31:24.097Z,26.28
2019-02-25T11:33:52.757Z,25.49
2019-02-25T11:36:24.019Z,25.85
2019-02-25T11:38:54.207Z,26.04
2019-02-25T11:41:24.646Z,26.15
2019-02-25T11:43:55.328Z,25.75
2019-02-25T11:46:31.103Z,24.69
2019-02-25T11:49:01.285Z,25.50
2019-02-25T11:51:37.358Z,25.75
2019-02-25T11:54:07.567Z,25.80
2019-02-25T11:56:46.123Z,24.81
2019-02-25T11:59:16.330Z,24.54
2019-02-25T12:01:46.506Z,25.48
2019-02-25T12:04:53.743Z,24.67
2019-02-25T12:07:23.922Z,25.11
2019-02-25T12:10:00.345Z,25.16
2019-02-25T12:12:30.593Z,24.89
2019-02-25T12:15:00.796Z,24.86
2019-02-25T12:17:30.970Z,25.38
2019-02-25T12:20:01.180Z,26.38
2019-02-25T12:22:33.303Z,25.84
2019-02-25T12:25:04.546Z,25.74
2019-02-25T12:27:34.728Z,25.43
2019-02-25T12:30:11.861Z,24.66
2019-02-25T12:32:42.054Z,24.82
2019-02-25T12:35:12.507Z,25.31
2019-02-25T12:37:42.712Z,25.54
2019-02-25T12:40:30.979Z,25.15
2019-02-25T12:43:01.148Z,26.26
2019-02-25T12:45:31.374Z,25.18
2019-02-25T12:48:01.557Z,26.10
2019-02-25T12:50:38.521Z,25.65
2019-02-25T12:53:20.731Z,25.79
2019-02-25T12:55:50.935Z,25.02
2019-02-25T12:58:21.208Z,25.14
2019-02-25T13:00:52.301Z,25.75
2019-02-25T13:03:22.503Z,25.65
2019-02-25T13:06:01.454Z,25.80
2019-02-25T13:08:50.688Z,26.13
2019-02-25T13:11:26.647Z,25.72
2019-02-25T13:14:16.829Z,25.67
2019-02-25T13:16:50.158Z,25.85
2019-02-25T13:19:20.342Z,25.88
2019-02-25T13:21:54.363Z,25.76
2019-02-25T13:24:24.542Z,26.09
2019-02-25T13:26:54.731Z,25.94
2019-02-25T13:29:24.916Z,26.36
2019-02-25T13:31:59.027Z,26.14
2019-02-25T13:34:29.215Z,26.09
2019-02-25T13:36:59.407Z,26.06
2019-02-25T13:39:29.613Z,25.97
2019-02-25T13:41:59.781Z,25.54
2019-02-25T13:44:29.987Z,26.11
2019-02-25T13:47:00.166Z,26.06
2019-02-25T13:49:46.246Z,26.20
2019-02-25T13:52:16.430Z,26.00
2019-02-25T13:54:46.662Z,26.21
2019-02-25T13:57:16.834Z,26.16
2019-02-25T13:59:47.038Z,26.34
2019-02-25T14:02:21.611Z,25.81
2019-02-25T14:04:51.815Z,25.74
2019-02-25T14:07:27.930Z,25.80
2019-02-25T14:10:00.092Z,25.87
2019-02-25T14:12:30.483Z,26.08
2019-02-25T14:15:00.684Z,25.79
2019-02-25T14:17:41.978Z,26.09
2019-02-25T14:20:18.000Z,26.33
2019-02-25T14:22:48.286Z,26.64
2019-02-25T14:25:26.954Z,26.11
2019-02-25T14:28:08.280Z,26.34
2019-02-25T14:30:39.782Z,26.11
2019-02-25T14:33:23.593Z,25.99
2019-02-25T14:36:10.990Z,25.88
2019-02-25T14:38:41.244Z,26.05
2019-02-25T14:41:13.376Z,25.94
2019-02-25T14:43:47.029Z,26.33
2019-02-25T14:46:17.306Z,26.28
2019-02-25T14:48:47.306Z,26.48
2019-02-25T14:51:18.474Z,27.33
2019-02-25T14:53:49.501Z,26.69
2019-02-25T14:56:49.605Z,26.84
2019-02-25T14:59:20.385Z,27.38
2019-02-25T15:01:51.165Z,27.55
2019-02-25T15:04:35.850Z,27.53
2019-02-25T15:07:08.647Z,27.04
2019-02-25T15:09:39.720Z,27.54
2019-02-25T15:12:16.086Z,27.08
2019-02-25T15:15:00.200Z,26.97
2019-02-25T15:17:30.575Z,27.42
2019-02-25T15:20:00.777Z,26.97
2019-02-25T15:22:40.774Z,27.30
2019-02-25T15:25:23.529Z,27.31
2019-02-25T15:27:53.712Z,27.19
2019-02-25T15:30:30.883Z,27.57
2019-02-25T15:33:01.186Z,27.23
2019-02-25T15:35:39.238Z,27.38
2019-02-25T15:38:21.545Z,27.40
2019-02-25T15:40:51.806Z,27.60
2019-02-25T15:43:23.302Z,27.55
2019-02-25T15:45:54.154Z,27.33
2019-02-25T15:48:24.345Z,27.49
2019-02-25T15:51:00.710Z,27.66
2019-02-25T15:53:31.117Z,28.15
2019-02-25T15:56:14.585Z,28.02
2019-02-25T15:58:50.781Z,27.71
2019-02-25T16:01:20.981Z,27.61
2019-02-25T16:03:51.309Z,28.14
2019-02-25T16:06:28.824Z,27.80
2019-02-25T16:08:59.274Z,28.63
2019-02-25T16:11:32.035Z,28.69
2019-02-25T16:14:07.172Z,28.77
2019-02-25T16:16:37.620Z,29.65
2019-02-25T16:19:07.879Z,29.28
2019-02-25T16:21:58.510Z,29.58
2019-02-25T16:24:34.191Z,30.38
2019-02-25T16:27:19.403Z,30.95
2019-02-25T16:29:49.753Z,30.41
2019-02-25T16:32:20.009Z,30.57
2019-02-25T16:34:51.937Z,31.11
2019-02-25T16:37:24.947Z,31.10
2019-02-25T16:40:12.404Z,31.96
2019-02-25T16:45:59.491Z,33.99
2019-02-25T16:48:32.650Z,32.34
2019-02-25T16:51:10.780Z,33.04
2019-02-25T16:53:43.365Z,33.26
2019-02-25T16:56:16.061Z,33.52
2019-02-25T16:58:47.704Z,32.27
2019-02-25T17:01:19.671Z,34.06
2019-02-25T17:03:49.823Z,34.91
2019-02-25T17:06:20.019Z,35.14
2019-02-25T17:08:51.042Z,34.83
2019-02-25T17:11:22.007Z,35.34
2019-02-25T17:13:54.741Z,35.22
2019-02-25T17:16:25.254Z,36.00
2019-02-25T17:19:06.452Z,36.35
2019-02-25T17:21:36.940Z,37.33
2019-02-25T17:24:16.136Z,36.77
2019-02-25T17:27:01.935Z,37.04
2019-02-25T17:29:34.165Z,37.88
2019-02-25T17:32:25.368Z,38.39
2019-02-25T17:35:09.456Z,39.07
2019-02-25T17:37:56.258Z,38.86
2019-02-25T17:40:48.705Z,39.12
2019-02-25T17:43:20.220Z,39.74
2019-02-25T17:45:50.731Z,39.54
2019-02-25T17:48:21.268Z,39.93
2019-02-25T17:50:53.437Z,39.64
2019-02-25T17:53:24.175Z,40.21
2019-02-25T17:55:59.413Z,40.48
2019-02-25T17:58:29.283Z,41.23
2019-02-25T18:01:01.065Z,41.40
2019-02-25T18:03:32.477Z,41.57
2019-02-25T18:06:03.486Z,42.08
2019-02-25T18:08:35.322Z,41.34
2019-02-25T18:11:09.698Z,41.81
2019-02-25T18:13:46.769Z,41.67
2019-02-25T18:16:18.976Z,41.25
2019-02-25T18:18:50.765Z,41.44
2019-02-25T18:21:21.260Z,40.53
2019-02-25T18:24:01.393Z,41.84
2019-02-25T18:26:32.209Z,41.16
2019-02-25T18:32:13.314Z,42.56
2019-02-25T18:34:44.558Z,42.24
2019-02-25T18:37:15.617Z,42.18
2019-02-25T18:39:54.289Z,42.51
2019-02-25T18:42:24.329Z,42.66
2019-02-25T18:44:57.673Z,43.18
2019-02-25T18:47:27.940Z,43.23
2019-02-25T18:50:07.411Z,43.22
2019-02-25T18:52:38.502Z,43.24
2019-02-25T18:55:12.023Z,43.86
2019-02-25T18:57:51.932Z,43.56
2019-02-25T19:00:45.314Z,43.67
2019-02-25T19:03:17.790Z,44.32
2019-02-25T19:06:06.891Z,44.41
2019-02-25T19:08:37.110Z,44.62
2019-02-25T19:11:07.328Z,45.08
2019-02-25T19:13:37.693Z,44.70
2019-02-25T19:16:09.009Z,44.81
2019-02-25T19:18:41.340Z,45.02
2019-02-25T19:21:11.085Z,44.89
2019-02-25T19:23:44.109Z,47.02
2019-02-25T19:26:21.897Z,45.41
2019-02-25T19:29:08.185Z,45.52
2019-02-25T19:31:39.905Z,44.92
2019-02-25T19:34:15.497Z,45.64
2019-02-25T19:36:44.253Z,45.93
2019-02-25T19:39:23.224Z,46.37
2019-02-25T19:42:05.418Z,45.83
2019-02-25T19:44:44.592Z,45.60
2019-02-25T19:47:20.479Z,46.71
2019-02-25T19:50:16.830Z,46.72
2019-02-25T19:52:47.142Z,47.05
2019-02-25T19:55:23.249Z,47.38
2019-02-25T19:58:02.942Z,47.41
2019-02-25T20:01:00.866Z,46.82
2019-02-25T20:03:28.978Z,47.09
2019-02-25T20:06:00.138Z,47.06
2019-02-25T20:08:56.403Z,48.13
2019-02-25T20:11:28.604Z,46.68
2019-02-25T20:14:01.521Z,47.51
2019-02-25T20:16:33.137Z,47.24
2019-02-25T20:19:09.234Z,47.02
2019-02-25T20:21:40.741Z,47.67
2019-02-25T20:24:14.384Z,46.57
2019-02-25T20:26:44.085Z,46.86
2019-02-25T20:29:15.220Z,47.51
2019-02-25T20:31:47.415Z,47.53
2019-02-25T20:34:25.901Z,47.77
2019-02-25T20:36:59.920Z,47.26
2019-02-25T20:39:31.783Z,47.72
2019-02-25T20:42:01.983Z,47.80
2019-02-25T20:44:37.769Z,48.18
2019-02-25T20:47:15.006Z,46.89
2019-02-25T20:49:47.393Z,47.20
2019-02-25T20:52:18.132Z,47.25
2019-02-25T20:54:52.162Z,47.07
2019-02-25T20:57:29.615Z,47.08
2019-02-25T21:00:08.991Z,47.70
2019-02-25T21:02:40.612Z,47.46
2019-02-25T21:05:13.922Z,48.34
2019-02-25T21:07:43.191Z,47.39
2019-02-25T21:10:18.950Z,47.88
2019-02-25T21:12:50.346Z,47.54
2019-02-25T21:15:35.441Z,47.66
2019-02-25T21:18:07.688Z,48.39
2019-02-25T21:20:40.059Z,49.68
2019-02-25T21:23:12.466Z,48.73
2019-02-25T21:25:44.183Z,48.70
2019-02-25T21:28:17.133Z,49.02
2019-02-25T21:30:54.295Z,49.58
2019-02-25T21:33:34.548Z,50.11
2019-02-25T21:36:04.745Z,50.00
2019-02-25T21:38:36.870Z,50.01
2019-02-25T21:41:08.973Z,49.85
2019-02-25T21:43:38.960Z,50.65
2019-02-25T21:46:09.143Z,50.44
2019-02-25T21:48:50.966Z,50.57
2019-02-25T21:51:20.221Z,50.44
2019-02-25T21:54:08.938Z,50.72
2019-02-25T21:56:39.444Z,50.84
2019-02-25T21:59:17.464Z,50.43
2019-02-25T22:02:07.454Z,50.71
2019-02-25T22:04:40.433Z,50.97
2019-02-25T22:07:19.838Z,50.84
2019-02-25T22:09:53.092Z,50.73
2019-02-25T22:12:33.030Z,51.30
2019-02-25T22:15:42.885Z,51.86
2019-02-25T22:18:14.109Z,52.32
2019-02-25T22:20:47.077Z,52.92
2019-02-25T22:23:16.773Z,52.94
2019-02-25T22:26:05.190Z,53.10
2019-02-25T22:28:55.275Z,52.97
2019-02-25T22:32:01.837Z,52.83
2019-02-25T22:34:33.841Z,53.06
2019-02-25T22:37:04.288Z,53.26
2019-02-25T22:39:43.816Z,53.25
2019-02-25T22:42:15.020Z,53.33
2019-02-25T22:44:47.477Z,53.22
2019-02-25T22:47:18.462Z,53.07
2019-02-25T22:49:49.278Z,54.36
2019-02-25T22:53:01.622Z,53.73
2019-02-25T22:55:39.241Z,53.35
2019-02-25T22:58:08.826Z,53.63
2019-02-25T23:00:58.226Z,54.32
2019-02-25T23:03:28.337Z,54.14
2019-02-25T23:06:15.631Z,54.18
2019-02-25T23:08:46.980Z,53.92
2019-02-25T23:11:30.290Z,53.94
2019-02-25T23:14:00.554Z,54.51
2019-02-25T23:16:52.360Z,54.97
2019-02-25T23:19:22.636Z,54.61
2019-02-25T23:21:52.919Z,54.57
2019-02-25T23:24:37.438Z,55.24
2019-02-25T23:27:08.217Z,55.03
2019-02-25T23:29:38.809Z,55.85
2019-02-25T23:32:09.986Z,55.25
2019-02-25T23:34:55.594Z,55.31
2019-02-25T23:37:25.843Z,56.48
2019-02-25T23:39:55.986Z,55.98
2019-02-25T23:42:26.195Z,56.06
2019-02-25T23:45:46.295Z,56.24
2019-02-25T23:48:16.626Z,55.75
2019-02-25T23:50:48.089Z,55.67
2019-02-25T23:53:18.803Z,56.41
2019-02-25T23:55:50.075Z,56.59
2019-02-25T23:58:22.290Z,56.81
